createdAt,value
2018-09-10T00:00:22.698Z,2.67
2018-09-10T00:02:52.243Z,3.07
2018-09-10T00:05:22.627Z,3.97
2018-09-10T00:07:51.992Z,3.00
2018-09-10T00:10:21.436Z,3.07
2018-09-10T00:12:50.852Z,3.63
2018-09-10T00:15:20.842Z,2.93
2018-09-10T00:17:50.199Z,3.30
2018-09-10T00:20:22.631Z,3.60
2018-09-10T00:22:52.940Z,2.90
2018-09-10T00:25:23.302Z,3.23
2018-09-10T00:27:52.685Z,3.47
2018-09-10T00:30:22.109Z,2.90
2018-09-10T00:32:52.122Z,3.03
2018-09-10T00:35:22.507Z,3.60
2018-09-10T00:37:52.250Z,3.07
2018-09-10T00:40:24.621Z,3.33
2018-09-10T00:42:53.872Z,3.60
2018-09-10T00:45:23.284Z,3.60
2018-09-10T00:47:52.653Z,3.07
2018-09-10T00:50:22.316Z,2.87
2018-09-10T00:52:51.838Z,3.30
2018-09-10T00:55:21.960Z,3.90
2018-09-10T00:57:51.406Z,2.50
2018-09-10T01:00:20.749Z,4.00
2018-09-10T01:02:50.225Z,4.10
2018-09-10T01:05:19.968Z,4.20
2018-09-10T01:07:49.498Z,4.23
2018-09-10T01:10:19.037Z,3.57
2018-09-10T01:12:48.417Z,3.30
2018-09-10T01:15:18.918Z,3.93
2018-09-10T01:17:49.145Z,2.93
2018-09-10T01:20:19.182Z,2.90
2018-09-10T01:22:48.484Z,3.30
2018-09-10T01:25:18.589Z,5.23
2018-09-10T01:27:48.483Z,3.40
2018-09-10T01:30:17.869Z,3.80
2018-09-10T01:32:47.143Z,4.47
2018-09-10T01:35:16.513Z,3.67
2018-09-10T01:37:45.981Z,3.20
2018-09-10T01:40:15.188Z,3.00
2018-09-10T01:42:44.447Z,3.27
2018-09-10T01:45:14.436Z,3.30
2018-09-10T01:47:46.349Z,3.60
2018-09-10T01:50:15.642Z,3.87
2018-09-10T01:52:44.970Z,4.13
2018-09-10T01:55:14.327Z,3.43
2018-09-10T01:57:44.442Z,4.27
2018-09-10T02:00:14.461Z,3.20
2018-09-10T02:02:43.862Z,3.60
2018-09-10T02:05:13.973Z,3.67
2018-09-10T02:07:43.335Z,3.60
2018-09-10T02:10:14.804Z,4.40
2018-09-10T02:12:45.166Z,4.07
2018-09-10T02:15:14.400Z,3.23
2018-09-10T02:17:44.684Z,4.03
2018-09-10T02:20:14.172Z,2.97
2018-09-10T02:22:43.712Z,3.17
2018-09-10T02:25:13.173Z,3.20
2018-09-10T02:27:42.652Z,3.13
2018-09-10T02:30:11.970Z,2.50
2018-09-10T02:32:42.140Z,4.20
2018-09-10T02:35:11.460Z,3.80
2018-09-10T02:37:40.812Z,3.30
2018-09-10T02:40:10.177Z,3.47
2018-09-10T02:42:39.483Z,3.40
2018-09-10T02:45:08.906Z,3.23
2018-09-10T02:47:38.154Z,3.77
2018-09-10T02:50:07.527Z,3.57
2018-09-10T02:52:36.765Z,3.50
2018-09-10T02:55:06.545Z,3.30
2018-09-10T02:57:35.847Z,2.83
2018-09-10T03:00:05.495Z,3.20
2018-09-10T03:02:34.853Z,3.33
2018-09-10T03:05:05.163Z,4.10
2018-09-10T03:07:34.470Z,2.93
2018-09-10T03:10:05.121Z,3.70
2018-09-10T03:12:34.593Z,3.67
2018-09-10T03:15:04.016Z,3.40
2018-09-10T03:17:34.661Z,3.47
2018-09-10T03:20:04.188Z,3.17
2018-09-10T03:22:33.625Z,3.43
2018-09-10T03:25:03.071Z,3.57
2018-09-10T03:27:32.489Z,4.13
2018-09-10T03:30:03.730Z,4.10
2018-09-10T03:32:33.167Z,4.50
2018-09-10T03:35:03.405Z,4.03
2018-09-10T03:37:34.519Z,4.30
2018-09-10T03:40:03.960Z,3.33
2018-09-10T03:42:33.380Z,4.90
2018-09-10T03:45:03.014Z,3.90
2018-09-10T03:47:32.425Z,3.87
2018-09-10T03:50:02.793Z,3.90
2018-09-10T03:52:32.077Z,3.80
2018-09-10T03:55:02.563Z,4.60
2018-09-10T03:57:31.925Z,3.87
2018-09-10T04:00:02.280Z,3.10
2018-09-10T04:02:32.341Z,3.37
2018-09-10T04:05:01.790Z,3.90
2018-09-10T04:07:31.932Z,3.30
2018-09-10T04:10:01.425Z,3.27
2018-09-10T04:12:30.815Z,3.40
2018-09-10T04:15:01.531Z,3.70
2018-09-10T04:17:31.062Z,3.40
2018-09-10T04:20:06.643Z,3.43
2018-09-10T04:22:36.066Z,3.80
2018-09-10T04:25:05.948Z,4.03
2018-09-10T04:27:35.927Z,3.37
2018-09-10T04:30:06.158Z,3.40
2018-09-10T04:32:35.770Z,3.53
2018-09-10T04:35:05.307Z,3.70
2018-09-10T04:37:34.685Z,4.17
2018-09-10T04:40:05.385Z,3.10
2018-09-10T04:42:35.495Z,4.60
2018-09-10T04:45:07.467Z,4.03
2018-09-10T04:47:37.121Z,5.17
2018-09-10T04:50:07.577Z,4.63
2018-09-10T04:52:37.032Z,4.80
2018-09-10T04:55:07.466Z,4.63
2018-09-10T04:57:36.830Z,4.63
2018-09-10T05:00:06.446Z,3.27
2018-09-10T05:02:35.656Z,3.63
2018-09-10T05:05:06.372Z,3.43
2018-09-10T05:07:35.799Z,3.20
2018-09-10T05:10:06.101Z,3.90
2018-09-10T05:12:36.477Z,3.27
2018-09-10T05:15:07.146Z,4.03
2018-09-10T05:17:36.423Z,3.63
2018-09-10T05:20:06.102Z,3.90
2018-09-10T05:22:35.507Z,3.27
2018-09-10T05:25:04.964Z,2.80
2018-09-10T05:27:34.051Z,3.20
2018-09-10T05:30:03.385Z,2.93
2018-09-10T05:32:33.490Z,3.43
2018-09-10T05:35:03.546Z,3.57
2018-09-10T05:37:34.016Z,3.33
2018-09-10T05:40:03.438Z,3.13
2018-09-10T05:42:39.333Z,2.97
2018-09-10T05:45:11.189Z,2.83
2018-09-10T05:47:42.632Z,3.53
2018-09-10T05:50:12.942Z,4.47
2018-09-10T05:52:43.809Z,3.43
2018-09-10T05:55:13.224Z,3.13
2018-09-10T05:57:43.565Z,3.13
2018-09-10T06:00:13.820Z,3.13
2018-09-10T06:02:43.097Z,3.23
2018-09-10T06:05:12.517Z,3.60
2018-09-10T06:07:41.865Z,3.97
2018-09-10T06:10:11.490Z,4.47
2018-09-10T06:12:40.932Z,4.63
2018-09-10T06:15:11.208Z,3.97
2018-09-10T06:17:40.470Z,4.20
2018-09-10T06:20:09.853Z,3.97
2018-09-10T06:22:42.475Z,3.43
2018-09-10T06:25:11.991Z,4.27
2018-09-10T06:27:41.998Z,4.10
2018-09-10T06:30:11.371Z,3.80
2018-09-10T06:32:41.648Z,5.33
2018-09-10T06:35:11.611Z,4.97
2018-09-10T06:37:41.163Z,5.37
2018-09-10T06:40:12.744Z,4.90
2018-09-10T06:42:43.330Z,4.60
2018-09-10T06:45:12.636Z,5.10
2018-09-10T06:47:43.345Z,7.17
2018-09-10T06:50:16.766Z,5.33
2018-09-10T06:52:46.183Z,6.10
2018-09-10T06:55:15.969Z,5.43
2018-09-10T06:57:45.419Z,5.07
2018-09-10T07:00:14.716Z,5.80
2018-09-10T07:02:44.171Z,5.87
2018-09-10T07:05:13.380Z,5.10
2018-09-10T07:07:42.748Z,5.37
2018-09-10T07:10:12.247Z,5.20
2018-09-10T07:12:41.583Z,3.93
2018-09-10T07:15:11.015Z,4.33
2018-09-10T07:17:40.355Z,4.80
2018-09-10T07:20:09.619Z,4.63
2018-09-10T07:22:38.944Z,5.50
2018-09-10T07:25:08.307Z,4.17
2018-09-10T07:27:37.591Z,5.97
2018-09-10T07:30:07.531Z,5.03
2018-09-10T07:32:36.990Z,4.87
2018-09-10T07:35:06.260Z,4.47
2018-09-10T07:37:35.497Z,5.00
2018-09-10T07:40:04.887Z,4.00
2018-09-10T07:42:35.359Z,5.53
2018-09-10T07:45:05.036Z,5.07
2018-09-10T07:47:34.503Z,5.03
2018-09-10T07:50:04.027Z,4.07
2018-09-10T07:52:33.507Z,5.40
2018-09-10T07:55:02.860Z,3.87
2018-09-10T07:57:32.282Z,4.27
2018-09-10T08:00:02.042Z,4.93
2018-09-10T08:02:31.467Z,5.40
2018-09-10T08:05:00.815Z,4.87
2018-09-10T08:07:30.187Z,5.20
2018-09-10T08:09:59.611Z,4.40
2018-09-10T08:12:28.990Z,5.07
2018-09-10T08:14:58.252Z,4.23
2018-09-10T08:17:28.080Z,5.10
2018-09-10T08:19:57.332Z,4.40
2018-09-10T08:22:26.625Z,4.60
2018-09-10T08:24:55.977Z,3.90
2018-09-10T08:27:25.227Z,4.07
2018-09-10T08:29:54.609Z,4.37
2018-09-10T08:32:23.947Z,4.50
2018-09-10T08:34:53.339Z,4.83
2018-09-10T08:37:22.783Z,4.20
2018-09-10T08:39:52.057Z,3.93
2018-09-10T08:42:21.386Z,4.27
2018-09-10T08:44:50.638Z,5.27
2018-09-10T08:47:20.087Z,3.70
2018-09-10T08:49:49.479Z,5.43
2018-09-10T08:52:18.860Z,4.40
2018-09-10T08:54:48.642Z,4.10
2018-09-10T08:57:17.571Z,4.40
2018-09-10T08:59:46.857Z,4.00
2018-09-10T09:02:16.301Z,3.90
2018-09-10T09:04:45.580Z,3.80
2018-09-10T09:07:15.255Z,4.10
2018-09-10T09:09:44.552Z,3.80
2018-09-10T09:12:14.138Z,4.10
2018-09-10T09:14:43.652Z,4.70
2018-09-10T09:17:12.981Z,4.13
2018-09-10T09:19:42.494Z,4.43
2018-09-10T09:22:11.828Z,3.80
2018-09-10T09:24:41.295Z,3.87
2018-09-10T09:27:10.628Z,3.70
2018-09-10T09:29:40.660Z,4.80
2018-09-10T09:32:10.326Z,4.40
2018-09-10T09:34:59.436Z,3.60
2018-09-10T09:37:33.680Z,4.03
2018-09-10T09:40:08.191Z,4.53
2018-09-10T09:42:42.454Z,5.37
2018-09-10T09:46:20.371Z,5.30
2018-09-10T09:48:49.983Z,4.63
2018-09-10T09:51:20.452Z,4.17
2018-09-10T09:53:49.750Z,4.40
2018-09-10T09:56:19.026Z,5.20
2018-09-10T09:58:48.410Z,5.50
2018-09-10T10:01:22.481Z,3.73
2018-09-10T10:04:02.275Z,3.63
2018-09-10T10:06:31.636Z,4.40
2018-09-10T10:09:01.432Z,4.23
2018-09-10T10:11:30.932Z,4.27
2018-09-10T10:14:00.403Z,4.27
2018-09-10T10:16:29.856Z,4.60
2018-09-10T10:19:02.605Z,4.20
2018-09-10T10:21:32.081Z,4.10
2018-09-10T10:24:02.179Z,5.27
2018-09-10T10:26:31.591Z,4.50
2018-09-10T10:29:01.152Z,3.90
2018-09-10T10:31:31.175Z,4.00
2018-09-10T10:34:01.749Z,4.67
2018-09-10T10:36:31.193Z,4.60
2018-09-10T10:39:00.557Z,4.33
2018-09-10T10:41:29.933Z,4.10
2018-09-10T10:43:59.202Z,4.07
2018-09-10T10:46:28.509Z,4.10
2018-09-10T10:48:58.498Z,5.17
2018-09-10T10:51:28.526Z,4.00
2018-09-10T10:53:58.553Z,3.17
2018-09-10T10:56:27.983Z,3.67
2018-09-10T10:58:58.177Z,3.80
2018-09-10T11:01:27.622Z,2.90
2018-09-10T11:03:57.039Z,3.00
2018-09-10T11:06:27.079Z,2.97
2018-09-10T11:08:57.194Z,2.93
2018-09-10T11:11:26.995Z,3.00
2018-09-10T11:13:56.416Z,2.33
2018-09-10T11:16:26.950Z,3.20
2018-09-10T11:18:56.452Z,2.77
2018-09-10T11:21:26.093Z,2.80
2018-09-10T11:23:55.328Z,4.07
2018-09-10T11:26:24.911Z,2.80
2018-09-10T11:28:54.369Z,3.37
2018-09-10T11:31:23.937Z,2.17
2018-09-10T11:33:53.295Z,2.50
2018-09-10T11:36:23.140Z,2.80
2018-09-10T11:38:52.506Z,2.63
2018-09-10T11:41:21.972Z,3.30
2018-09-10T11:43:51.927Z,3.50
2018-09-10T11:46:21.882Z,2.90
2018-09-10T11:48:51.849Z,3.00
2018-09-10T11:51:21.679Z,2.53
2018-09-10T11:53:50.938Z,3.20
2018-09-10T11:56:20.467Z,2.90
2018-09-10T11:58:49.974Z,2.63
2018-09-10T12:01:19.369Z,3.13
2018-09-10T12:03:48.754Z,3.20
2018-09-10T12:06:18.250Z,1.83
2018-09-10T12:08:49.606Z,2.90
2018-09-10T12:11:19.946Z,2.10
2018-09-10T12:13:50.093Z,2.03
2018-09-10T12:16:19.620Z,2.40
2018-09-10T12:18:49.114Z,2.27
2018-09-10T12:21:18.480Z,2.13
2018-09-10T12:23:48.072Z,2.40
2018-09-10T12:26:17.791Z,2.70
2018-09-10T12:28:48.208Z,2.17
2018-09-10T12:31:17.685Z,2.23
2018-09-10T12:33:47.028Z,2.20
2018-09-10T12:36:16.799Z,2.60
2018-09-10T12:38:46.484Z,2.27
2018-09-10T12:41:16.410Z,2.20
2018-09-10T12:43:46.876Z,1.67
2018-09-10T12:46:17.777Z,2.90
2018-09-10T12:48:47.611Z,2.10
2018-09-10T12:51:17.121Z,2.03
2018-09-10T12:53:46.696Z,2.30
2018-09-10T12:56:16.225Z,2.20
2018-09-10T12:58:45.675Z,2.07
2018-09-10T13:01:15.185Z,2.53
2018-09-10T13:03:44.678Z,2.70
2018-09-10T13:06:16.066Z,2.40
2018-09-10T13:08:45.471Z,1.90
2018-09-10T13:11:14.927Z,1.60
2018-09-10T13:13:45.070Z,2.00
2018-09-10T13:16:14.461Z,1.97
2018-09-10T13:18:43.837Z,2.37
2018-09-10T13:21:13.197Z,1.93
2018-09-10T13:23:42.434Z,1.90
2018-09-10T13:26:12.013Z,2.20
2018-09-10T13:28:41.412Z,2.50
2018-09-10T13:31:10.783Z,1.40
2018-09-10T13:33:40.886Z,2.10
2018-09-10T13:36:10.951Z,2.10
2018-09-10T13:38:40.677Z,1.80
2018-09-10T13:41:09.827Z,2.70
2018-09-10T13:43:39.296Z,2.40
2018-09-10T13:46:09.409Z,2.20
2018-09-10T13:48:38.738Z,2.20
2018-09-10T13:51:08.920Z,1.93
2018-09-10T13:53:38.390Z,2.23
2018-09-10T13:56:07.779Z,2.50
2018-09-10T13:58:37.292Z,1.80
2018-09-10T14:01:06.710Z,2.23
2018-09-10T14:03:36.348Z,1.57
2018-09-10T14:06:05.618Z,1.40
2018-09-10T14:08:34.865Z,1.90
2018-09-10T14:11:04.358Z,2.50
2018-09-10T14:13:33.607Z,2.43
2018-09-10T14:16:04.086Z,1.97
2018-09-10T14:18:33.486Z,2.40
2018-09-10T14:21:02.952Z,2.87
2018-09-10T14:23:32.313Z,2.17
2018-09-10T14:26:01.787Z,2.17
2018-09-10T14:28:31.255Z,2.33
2018-09-10T14:31:00.602Z,2.57
2018-09-10T14:33:30.416Z,2.50
2018-09-10T14:36:00.101Z,2.13
2018-09-10T14:38:30.704Z,2.33
2018-09-10T14:41:00.086Z,2.40
2018-09-10T14:43:29.480Z,2.10
2018-09-10T14:45:59.030Z,2.30
2018-09-10T14:48:28.515Z,1.93
2018-09-10T14:50:58.434Z,6.10
2018-09-10T14:53:27.973Z,1.63
2018-09-10T14:55:57.331Z,1.90
2018-09-10T14:58:26.754Z,2.67
2018-09-10T15:00:57.193Z,2.70
2018-09-10T15:03:27.692Z,1.90
2018-09-10T15:05:58.459Z,3.00
2018-09-10T15:08:28.247Z,2.20
2018-09-10T15:10:57.766Z,2.33
2018-09-10T15:13:27.146Z,2.60
2018-09-10T15:15:57.774Z,2.63
2018-09-10T15:18:28.471Z,1.80
2018-09-10T15:20:57.944Z,2.33
2018-09-10T15:23:27.443Z,2.17
2018-09-10T15:25:56.928Z,2.50
2018-09-10T15:28:26.274Z,2.03
2018-09-10T15:30:55.637Z,3.30
2018-09-10T15:33:25.002Z,2.60
2018-09-10T15:35:54.435Z,2.00
2018-09-10T15:38:23.702Z,3.00
2018-09-10T15:40:55.193Z,2.17
2018-09-10T15:43:25.308Z,2.10
2018-09-10T15:45:54.770Z,2.30
2018-09-10T15:48:25.260Z,1.83
2018-09-10T15:50:54.757Z,3.00
2018-09-10T15:53:24.285Z,3.63
2018-09-10T15:55:53.706Z,5.13
2018-09-10T15:58:23.555Z,3.87
2018-09-10T16:00:53.126Z,4.23
2018-09-10T16:03:22.625Z,3.40
2018-09-10T16:05:52.203Z,3.43
2018-09-10T16:08:21.868Z,3.50
2018-09-10T16:10:51.215Z,3.90
2018-09-10T16:13:21.708Z,2.80
2018-09-10T16:15:51.678Z,2.40
2018-09-10T16:18:22.146Z,2.63
2018-09-10T16:20:51.521Z,2.30
2018-09-10T16:23:21.045Z,3.00
2018-09-10T16:25:50.599Z,2.30
2018-09-10T16:28:20.020Z,3.00
2018-09-10T16:30:49.588Z,2.77
2018-09-10T16:33:18.764Z,2.30
2018-09-10T16:35:48.217Z,3.53
2018-09-10T16:38:17.687Z,2.53
2018-09-10T16:40:47.089Z,2.10
2018-09-10T16:43:16.630Z,2.00
2018-09-10T16:45:46.253Z,2.80
2018-09-10T16:48:15.710Z,2.37
2018-09-10T16:50:45.263Z,2.13
2018-09-10T16:53:14.697Z,2.37
2018-09-10T16:55:44.145Z,3.27
2018-09-10T16:58:13.725Z,3.70
2018-09-10T17:00:43.246Z,4.13
2018-09-10T17:03:12.692Z,2.57
2018-09-10T17:05:42.886Z,2.53
2018-09-10T17:08:12.418Z,2.97
2018-09-10T17:10:41.821Z,3.40
2018-09-10T17:13:11.323Z,2.60
2018-09-10T17:15:40.860Z,2.33
2018-09-10T17:18:10.130Z,2.93
2018-09-10T17:20:39.584Z,3.10
2018-09-10T17:23:08.999Z,2.60
2018-09-10T17:25:40.642Z,2.90
2018-09-10T17:28:10.063Z,2.50
2018-09-10T17:30:39.644Z,2.50
2018-09-10T17:33:09.139Z,2.40
2018-09-10T17:35:38.488Z,2.57
2018-09-10T17:38:08.849Z,2.60
2018-09-10T17:40:38.191Z,2.73
2018-09-10T17:43:07.665Z,2.80
2018-09-10T17:45:36.950Z,2.47
2018-09-10T17:48:06.970Z,3.80
2018-09-10T17:50:37.372Z,3.47
2018-09-10T17:53:07.001Z,3.37
2018-09-10T17:55:36.474Z,3.47
2018-09-10T17:58:05.751Z,2.93
2018-09-10T18:00:39.532Z,2.97
2018-09-10T18:03:10.411Z,3.03
2018-09-10T18:05:40.577Z,3.33
2018-09-10T18:08:10.891Z,2.70
2018-09-10T18:10:40.494Z,3.03
2018-09-10T18:13:09.861Z,3.37
2018-09-10T18:15:40.087Z,2.90
2018-09-10T18:18:10.552Z,2.97
2018-09-10T18:20:40.017Z,2.93
2018-09-10T18:23:09.564Z,2.80
2018-09-10T18:25:38.804Z,3.13
2018-09-10T18:28:08.877Z,3.00
2018-09-10T18:30:38.291Z,2.93
2018-09-10T18:33:08.929Z,3.13
2018-09-10T18:35:38.378Z,3.00
2018-09-10T18:38:07.873Z,3.10
2018-09-10T18:40:37.250Z,3.13
2018-09-10T18:43:07.146Z,3.10
2018-09-10T18:45:36.627Z,3.00
2018-09-10T18:48:06.696Z,3.10
2018-09-10T18:50:36.097Z,3.10
2018-09-10T18:53:05.414Z,3.10
2018-09-10T18:55:34.729Z,3.43
2018-09-10T18:58:04.519Z,2.90
2018-09-10T19:00:33.922Z,2.80
2018-09-10T19:03:05.102Z,3.87
2018-09-10T19:05:34.636Z,3.20
2018-09-10T19:08:05.150Z,2.57
2018-09-10T19:10:35.643Z,2.50
2018-09-10T19:13:05.538Z,3.70
2018-09-10T19:15:35.761Z,3.20
2018-09-10T19:18:05.706Z,2.70
2018-09-10T19:20:35.928Z,3.40
2018-09-10T19:23:05.497Z,3.33
2018-09-10T19:25:35.705Z,3.03
2018-09-10T19:28:05.152Z,3.53
2018-09-10T19:30:34.589Z,2.57
2018-09-10T19:33:04.115Z,3.43
2018-09-10T19:35:33.664Z,3.07
2018-09-10T19:38:04.304Z,2.60
2018-09-10T19:40:33.704Z,3.80
2018-09-10T19:43:03.182Z,3.10
2018-09-10T19:45:32.721Z,3.60
2018-09-10T19:48:02.185Z,2.83
2018-09-10T19:50:32.577Z,3.00
2018-09-10T19:53:02.185Z,3.43
2018-09-10T19:55:32.196Z,3.27
2018-09-10T19:58:02.992Z,3.50
2018-09-10T20:00:32.535Z,3.70
2018-09-10T20:03:02.069Z,3.17
2018-09-10T20:05:31.486Z,3.60
2018-09-10T20:08:00.969Z,3.27
2018-09-10T20:10:30.862Z,3.67
2018-09-10T20:13:00.554Z,2.60
2018-09-10T20:15:30.096Z,3.47
2018-09-10T20:17:59.639Z,3.43
2018-09-10T20:20:29.420Z,3.10
2018-09-10T20:22:58.880Z,3.23
2018-09-10T20:25:28.292Z,4.23
2018-09-10T20:27:57.938Z,3.60
2018-09-10T20:30:27.262Z,3.73
2018-09-10T20:32:56.715Z,2.97
2018-09-10T20:35:26.064Z,4.20
2018-09-10T20:37:57.405Z,3.20
2018-09-10T20:40:26.882Z,3.57
2018-09-10T20:42:56.172Z,3.53
2018-09-10T20:45:25.448Z,4.90
2018-09-10T20:47:54.912Z,8.03
2018-09-10T20:50:24.446Z,6.03
2018-09-10T20:52:53.919Z,6.50
2018-09-10T20:55:23.207Z,5.90
2018-09-10T21:00:56.196Z,4.40
2018-09-10T21:03:25.619Z,3.90
2018-09-10T21:05:55.148Z,8.70
2018-09-10T21:08:25.663Z,5.73
2018-09-10T21:10:55.039Z,5.50
2018-09-10T21:13:25.143Z,3.87
2018-09-10T21:15:54.460Z,4.77
2018-09-10T21:18:23.757Z,3.77
2018-09-10T21:20:53.100Z,3.37
2018-09-10T21:23:22.892Z,4.03
2018-09-10T21:25:52.300Z,3.50
2018-09-10T21:28:22.371Z,4.10
2018-09-10T21:30:51.757Z,3.77
2018-09-10T21:33:21.099Z,3.87
2018-09-10T21:35:50.539Z,3.40
2018-09-10T21:38:20.026Z,3.43
2018-09-10T21:40:49.370Z,3.43
2018-09-10T21:43:18.976Z,3.97
2018-09-10T21:45:48.313Z,3.97
2018-09-10T21:48:17.616Z,3.33
2018-09-10T21:50:46.862Z,3.50
2018-09-10T21:53:16.166Z,3.60
2018-09-10T21:55:45.642Z,3.60
2018-09-10T21:58:15.059Z,3.47
2018-09-10T22:00:49.919Z,4.10
2018-09-10T22:03:19.348Z,3.10
2018-09-10T22:05:48.871Z,4.57
2018-09-10T22:08:18.147Z,3.70
2018-09-10T22:10:47.436Z,4.10
2018-09-10T22:13:16.730Z,4.57
2018-09-10T22:15:46.128Z,3.93
2018-09-10T22:18:15.412Z,3.70
2018-09-10T22:20:45.227Z,4.23
2018-09-10T22:23:14.507Z,4.37
2018-09-10T22:25:43.867Z,3.33
2018-09-10T22:28:13.274Z,3.87
2018-09-10T22:30:42.786Z,3.80
2018-09-10T22:33:12.173Z,4.57
2018-09-10T22:35:41.566Z,3.70
2018-09-10T22:38:10.815Z,4.47
2018-09-10T22:40:39.991Z,3.70
2018-09-10T22:43:09.407Z,4.10
2018-09-10T22:45:38.824Z,4.53
2018-09-10T22:48:08.229Z,4.53
2018-09-10T22:50:37.766Z,4.43
2018-09-10T22:53:07.048Z,3.97
2018-09-10T22:55:36.420Z,3.97
2018-09-10T22:58:05.903Z,4.20
2018-09-10T23:00:36.266Z,4.00
2018-09-10T23:03:05.707Z,3.80
2018-09-10T23:05:35.100Z,4.20
2018-09-10T23:08:06.209Z,5.07
2018-09-10T23:10:35.790Z,4.83
2018-09-10T23:13:05.066Z,4.47
2018-09-10T23:15:34.409Z,4.50
2018-09-10T23:18:03.981Z,3.90
2018-09-10T23:20:33.311Z,4.10
2018-09-10T23:23:03.136Z,4.40
2018-09-10T23:25:32.318Z,4.47
2018-09-10T23:28:01.650Z,4.30
2018-09-10T23:30:31.139Z,3.70
2018-09-10T23:33:00.407Z,4.50
2018-09-10T23:35:29.752Z,3.53
2018-09-10T23:37:59.230Z,5.20
2018-09-10T23:40:28.558Z,4.87
2018-09-10T23:42:57.776Z,4.90
2018-09-10T23:45:27.264Z,4.63
2018-09-10T23:47:56.914Z,4.10
2018-09-10T23:50:26.355Z,4.73
2018-09-10T23:52:55.679Z,3.60
2018-09-10T23:55:25.049Z,4.13
2018-09-10T23:57:54.260Z,4.90
